KHII/HII METAR and TAF weather

Enter ICAO airport designator
Station Type Date Time Source
KHII METAR 2022/12/10 01:55 UTC NOAA

KHII 100155Z AUTO 00000KT 10SM CLR 13/M07 A3006 RMK AO2


Station Type Date Time Source
KHII Decoded METAR 2022/12/10 01:55 UTC NOAA

Station name not available
Dec 09, 2022 - 08:55 PM EST / 2022.12.10 0155 UTC
Wind: Calm:0
Visibility: 10 mile(s):0
Sky conditions: clear
Temperature: 55 F (13 C)
Dew Point: 19 F (-7 C)
Relative Humidity: 24%
Pressure (altimeter): 30.06 in. Hg (1017 hPa)
ob: KHII 100155Z AUTO 00000KT 10SM CLR 13/M07 A3006 RMK AO2
cycle: 2

Station Type Date Time Source
KHII TAF UTC NOAA

Error!

Example: see airport list